Time;durP1;ratioP1;P1;durP2;ratioP2;P2;SDS_P1;SDS_P2;PMS_P1;PMS_P2;Temp;Humidity;BMP_temperature;BMP_pressure;BME280_temperature;BME280_humidity;BME280_pressure;Samples;Min_cycle;Max_cycle;Signal;HPM_P1;HPM_P2
2023/08/05 00:00:46;;;;;;;8.73;6.13;;;;;;;14.68;100.00;101585.47;5319860;27;20028;-68
2023/08/05 00:03:18;;;;;;;7.60;5.95;;;;;;;14.78;100.00;101586.41;5315866;28;20051;-68
2023/08/05 00:05:49;;;;;;;10.05;6.00;;;;;;;14.67;100.00;101579.25;5320995;28;20419;-68
2023/08/05 00:08:21;;;;;;;10.73;6.00;;;;;;;14.69;100.00;101571.94;5321452;28;20066;-68
2023/08/05 00:10:53;;;;;;;10.77;6.05;;;;;;;14.71;100.00;101563.75;5313942;28;20043;-68
2023/08/05 00:13:24;;;;;;;7.97;5.85;;;;;;;14.67;100.00;101559.63;5328029;27;20080;-68
2023/08/05 00:15:55;;;;;;;8.05;5.75;;;;;;;14.66;100.00;101550.69;5320636;28;20031;-67
2023/08/05 00:18:27;;;;;;;7.78;6.13;;;;;;;14.63;100.00;101545.59;5319807;28;20027;-68
2023/08/05 00:20:58;;;;;;;9.77;6.55;;;;;;;14.70;100.00;101554.81;5315857;28;20158;-67
2023/08/05 00:23:29;;;;;;;12.02;6.32;;;;;;;14.78;100.00;101559.56;5315551;28;20032;-67
2023/08/05 00:26:01;;;;;;;8.10;5.95;;;;;;;14.62;100.00;101557.28;5318061;28;20678;-68
2023/08/05 00:28:32;;;;;;;9.65;6.18;;;;;;;14.72;100.00;101553.84;5318546;27;20021;-67
2023/08/05 00:31:08;;;;;;;9.82;6.80;;;;;;;14.76;100.00;101566.03;5316857;28;20027;-68
2023/08/05 00:33:40;;;;;;;8.48;6.28;;;;;;;14.69;100.00;101555.81;5314368;28;20114;-67
2023/08/05 00:36:11;;;;;;;9.73;6.45;;;;;;;14.76;100.00;101545.41;5321321;28;20110;-68
2023/08/05 00:38:42;;;;;;;9.48;6.45;;;;;;;14.82;100.00;101536.84;5310286;28;20024;-68
2023/08/05 00:41:13;;;;;;;9.00;5.95;;;;;;;14.78;100.00;101543.44;5310785;28;20038;-68
2023/08/05 00:43:45;;;;;;;8.68;6.40;;;;;;;14.75;100.00;101551.75;5305757;27;20023;-68
2023/08/05 00:46:18;;;;;;;10.55;6.53;;;;;;;14.71;100.00;101544.94;5308907;28;20107;-68
2023/08/05 00:48:51;;;;;;;10.30;6.38;;;;;;;14.70;100.00;101535.16;5316377;28;20020;-67
2023/08/05 00:51:22;;;;;;;9.30;6.10;;;;;;;14.82;100.00;101541.34;5322735;28;20042;-68
2023/08/05 00:53:54;;;;;;;9.13;6.22;;;;;;;14.74;100.00;101533.09;5318168;28;20466;-68
2023/08/05 00:56:25;;;;;;;9.35;6.30;;;;;;;14.84;100.00;101532.19;5310293;28;20039;-68
2023/08/05 00:58:56;;;;;;;12.07;7.25;;;;;;;14.79;100.00;101522.81;5308747;28;20042;-67
2023/08/05 01:01:28;;;;;;;8.63;6.47;;;;;;;14.86;100.00;101523.97;5313040;28;20083;-68
2023/08/05 01:03:59;;;;;;;8.15;6.53;;;;;;;14.82;100.00;101525.22;5317449;28;20622;-68
2023/08/05 01:06:32;;;;;;;9.40;6.72;;;;;;;14.79;100.00;101529.03;5318900;28;20027;-67
2023/08/05 01:09:04;;;;;;;8.95;6.90;;;;;;;14.73;100.00;101526.00;5311435;28;20104;-68
2023/08/05 01:11:36;;;;;;;11.73;6.65;;;;;;;14.73;100.00;101523.31;5312762;28;20039;-68
2023/08/05 01:14:07;;;;;;;8.73;5.75;;;;;;;14.67;100.00;101513.97;5321590;28;20028;-68
2023/08/05 01:16:38;;;;;;;9.88;6.35;;;;;;;14.73;100.00;101510.75;5315602;28;20389;-68
2023/08/05 01:19:20;;;;;;;9.85;6.60;;;;;;;14.68;100.00;101508.44;5327868;27;20827;-68
2023/08/05 01:22:06;;;;;;;9.88;7.07;;;;;;;14.72;100.00;101510.88;5313059;28;20035;-67
2023/08/05 01:25:03;;;;;;;10.55;6.90;;;;;;;14.77;100.00;101509.50;5317075;28;20222;-68
2023/08/05 01:27:37;;;;;;;10.82;7.50;;;;;;;14.67;100.00;101514.78;5317260;28;20595;-68
2023/08/05 01:30:09;;;;;;;9.38;6.47;;;;;;;14.80;100.00;101508.38;5318515;28;20058;-68
2023/08/05 01:32:40;;;;;;;9.27;7.15;;;;;;;14.68;100.00;101510.28;5316164;28;20066;-68
2023/08/05 01:35:12;;;;;;;11.27;7.13;;;;;;;14.73;100.00;101512.56;5311585;28;20019;-68
2023/08/05 01:37:43;;;;;;;9.00;6.78;;;;;;;14.61;100.00;101509.94;5316489;28;20066;-68
2023/08/05 01:40:14;;;;;;;9.93;6.63;;;;;;;14.61;100.00;101506.38;5320767;28;20024;-68
2023/08/05 01:42:46;;;;;;;9.43;6.90;;;;;;;14.65;100.00;101508.72;5318357;28;20023;-67
2023/08/05 01:45:17;;;;;;;10.50;7.15;;;;;;;14.68;100.00;101504.91;5321787;27;20035;-68
2023/08/05 01:47:48;;;;;;;11.70;7.50;;;;;;;14.55;100.00;101507.72;5315159;28;20031;-67
2023/08/05 01:50:20;;;;;;;12.60;7.38;;;;;;;14.58;100.00;101504.81;5320356;28;20027;-68
2023/08/05 01:52:53;;;;;;;12.05;7.30;;;;;;;14.58;100.00;101514.72;5309927;28;20019;-68
2023/08/05 01:55:24;;;;;;;12.18;7.53;;;;;;;14.57;100.00;101521.91;5308551;27;20016;-68
2023/08/05 01:57:56;;;;;;;12.02;7.28;;;;;;;14.58;100.00;101515.56;5313729;27;20865;-68
2023/08/05 02:00:27;;;;;;;11.57;7.90;;;;;;;14.56;100.00;101508.59;5310284;27;20028;-68
2023/08/05 02:02:58;;;;;;;12.38;7.68;;;;;;;14.47;100.00;101512.88;5312461;28;20629;-67
2023/08/05 02:05:30;;;;;;;10.60;7.80;;;;;;;14.44;100.00;101518.47;5309906;28;20031;-67
2023/08/05 02:08:01;;;;;;;8.57;7.10;;;;;;;14.35;100.00;101512.06;5309739;28;20062;-67
2023/08/05 02:10:32;;;;;;;9.43;7.18;;;;;;;14.30;100.00;101508.88;5314102;28;20032;-67
2023/08/05 02:13:04;;;;;;;9.43;7.22;;;;;;;14.23;100.00;101505.84;5318104;28;20055;-68
2023/08/05 02:15:35;;;;;;;8.68;7.35;;;;;;;14.29;100.00;101509.88;5317013;28;20455;-68
2023/08/05 02:18:07;;;;;;;13.45;8.20;;;;;;;14.23;100.00;101521.09;5317832;28;20031;-68
2023/08/05 02:20:39;;;;;;;10.60;7.88;;;;;;;14.23;100.00;101504.97;5309906;28;20023;-68
2023/08/05 02:23:10;;;;;;;11.57;8.63;;;;;;;14.23;100.00;101504.97;5315775;28;20020;-69
2023/08/05 02:25:41;;;;;;;11.70;8.70;;;;;;;14.12;100.00;101504.03;5316398;28;20031;-68
2023/08/05 02:28:13;;;;;;;12.13;8.15;;;;;;;14.19;100.00;101509.78;5316660;28;20120;-68
2023/08/05 02:30:44;;;;;;;13.35;8.75;;;;;;;14.19;100.00;101500.84;5313545;28;20106;-68
2023/08/05 02:33:15;;;;;;;11.00;8.00;;;;;;;14.26;100.00;101499.38;5316073;27;20034;-68
2023/08/05 02:35:47;;;;;;;9.48;7.80;;;;;;;14.20;100.00;101495.34;5317531;28;20102;-68
2023/08/05 02:38:18;;;;;;;9.70;8.18;;;;;;;14.13;100.00;101486.09;5300667;28;20032;-68
2023/08/05 02:40:49;;;;;;;13.80;9.60;;;;;;;14.18;100.00;101483.06;5309563;28;20382;-67
2023/08/05 02:43:21;;;;;;;13.20;9.00;;;;;;;14.06;100.00;101484.91;5310215;28;20439;-68
2023/08/05 02:45:56;;;;;;;12.95;9.10;;;;;;;14.06;100.00;101492.97;5315120;28;20027;-68
2023/08/05 02:48:27;;;;;;;12.98;9.00;;;;;;;14.14;100.00;101487.81;5319944;27;20034;-68
2023/08/05 02:51:01;;;;;;;11.88;8.60;;;;;;;13.95;100.00;101482.25;5305228;28;20043;-68
2023/08/05 02:53:32;;;;;;;10.75;8.60;;;;;;;13.98;100.00;101490.03;5316306;28;20039;-68
2023/08/05 02:56:04;;;;;;;15.07;8.80;;;;;;;13.98;100.00;101484.66;5314098;28;20374;-67
2023/08/05 02:58:35;;;;;;;11.02;8.50;;;;;;;13.91;100.00;101476.25;5318402;28;20114;-68
2023/08/05 03:01:11;;;;;;;14.45;8.73;;;;;;;13.96;100.00;101478.56;5319258;28;20028;-68
2023/08/05 03:03:42;;;;;;;12.18;8.82;;;;;;;13.96;100.00;101484.81;5318071;28;20019;-67
2023/08/05 03:06:13;;;;;;;11.10;8.23;;;;;;;13.83;100.00;101484.09;5309934;28;20039;-67
2023/08/05 03:08:45;;;;;;;12.45;8.93;;;;;;;13.88;100.00;101474.69;5299564;28;20599;-67
2023/08/05 03:11:16;;;;;;;14.50;9.40;;;;;;;13.93;100.00;101461.75;5306828;28;20019;-67
2023/08/05 03:13:47;;;;;;;12.35;8.88;;;;;;;13.90;100.00;101456.63;5318479;28;20078;-67
2023/08/05 03:16:19;;;;;;;11.07;8.68;;;;;;;13.93;100.00;101453.69;5307840;28;20049;-67
2023/08/05 03:18:50;;;;;;;14.15;8.68;;;;;;;13.87;100.00;101458.72;5316514;28;20023;-67
2023/08/05 03:21:22;;;;;;;10.50;8.02;;;;;;;13.85;100.00;101449.94;5300335;28;20030;-67
2023/08/05 03:23:53;;;;;;;12.65;9.25;;;;;;;13.90;100.00;101448.59;5309213;28;20474;-67
2023/08/05 03:26:24;;;;;;;13.38;8.23;;;;;;;13.87;100.00;101451.50;5315382;28;20028;-67
2023/08/05 03:28:56;;;;;;;13.25;9.48;;;;;;;13.80;100.00;101452.13;5317600;28;20195;-67
2023/08/05 03:31:27;;;;;;;15.27;9.65;;;;;;;13.73;100.00;101451.78;5313273;28;20023;-67
2023/08/05 03:33:58;;;;;;;14.80;9.25;;;;;;;13.71;100.00;101449.22;5321038;28;20461;-67
2023/08/05 03:36:30;;;;;;;11.27;8.90;;;;;;;13.72;100.00;101448.22;5311121;28;20078;-67
2023/08/05 03:39:01;;;;;;;14.13;9.48;;;;;;;13.58;100.00;101440.44;5318665;28;20027;-67
2023/08/05 03:41:34;;;;;;;12.27;9.88;;;;;;;13.56;100.00;101446.88;5320894;28;20034;-67
2023/08/05 03:44:05;;;;;;;14.18;9.70;;;;;;;13.54;100.00;101433.63;5321163;28;20093;-67
2023/08/05 03:46:37;;;;;;;15.93;9.65;;;;;;;13.57;100.00;101421.78;5317699;28;20594;-67
2023/08/05 03:49:08;;;;;;;15.32;9.98;;;;;;;13.55;100.00;101423.75;5320442;28;20024;-67
2023/08/05 03:51:40;;;;;;;15.70;10.75;;;;;;;13.59;100.00;101419.84;5309311;28;20985;-67
2023/08/05 03:54:11;;;;;;;15.00;9.95;;;;;;;13.58;100.00;101423.50;5314961;28;20484;-67
2023/08/05 03:56:42;;;;;;;13.82;10.18;;;;;;;13.54;100.00;101422.91;5309583;28;20027;-67
2023/08/05 03:59:14;;;;;;;13.50;9.90;;;;;;;13.64;100.00;101406.94;5320787;28;20023;-67
2023/08/05 04:01:45;;;;;;;15.15;10.90;;;;;;;13.64;100.00;101410.44;5322025;28;20586;-67
2023/08/05 04:04:17;;;;;;;14.63;10.27;;;;;;;13.66;100.00;101405.81;5316487;28;20035;-67
2023/08/05 04:06:48;;;;;;;14.05;10.13;;;;;;;13.78;100.00;101408.50;5318981;28;20027;-67
2023/08/05 04:09:20;;;;;;;14.20;10.52;;;;;;;13.82;100.00;101404.56;5319251;28;20472;-67
2023/08/05 04:11:53;;;;;;;16.23;11.07;;;;;;;13.77;100.00;101404.97;5318301;28;20027;-67
2023/08/05 04:14:25;;;;;;;18.27;10.70;;;;;;;13.86;100.00;101409.56;5321278;28;20059;-66
2023/08/05 04:16:56;;;;;;;16.98;11.25;;;;;;;13.98;100.00;101401.47;5318420;28;20062;-67
2023/08/05 04:19:28;;;;;;;15.18;10.93;;;;;;;13.85;100.00;101409.69;5320708;28;20024;-67
2023/08/05 04:22:01;;;;;;;12.95;10.80;;;;;;;13.97;100.00;101405.16;5318260;28;20027;-67
2023/08/05 04:24:33;;;;;;;14.10;10.60;;;;;;;13.82;100.00;101386.66;5310788;28;20080;-67
2023/08/05 04:27:05;;;;;;;14.30;10.55;;;;;;;13.75;100.00;101382.78;5313565;28;20106;-67
2023/08/05 04:29:36;;;;;;;17.25;10.95;;;;;;;13.86;100.00;101373.84;5319921;28;20107;-67
2023/08/05 04:32:07;;;;;;;16.75;10.80;;;;;;;13.78;100.00;101365.56;5315896;28;20024;-67
2023/08/05 04:34:39;;;;;;;15.70;11.55;;;;;;;13.92;100.00;101362.59;5316830;28;20023;-67
2023/08/05 04:37:20;;;;;;;14.55;11.20;;;;;;;13.91;100.00;101361.75;5320886;28;20080;-67
2023/08/05 04:39:51;;;;;;;16.48;11.30;;;;;;;13.80;100.00;101361.78;5318709;28;20027;-67
2023/08/05 04:42:23;;;;;;;19.45;12.10;;;;;;;13.89;100.00;101360.19;5322686;28;20034;-67
2023/08/05 04:44:55;;;;;;;15.52;11.00;;;;;;;13.98;100.00;101354.06;5315646;27;20473;-67
2023/08/05 04:47:26;;;;;;;12.65;9.88;;;;;;;13.90;100.00;101348.47;5317216;28;20035;-67
2023/08/05 04:49:58;;;;;;;18.30;12.15;;;;;;;13.85;100.00;101346.16;5310460;28;20032;-67
2023/08/05 04:52:30;;;;;;;15.40;11.80;;;;;;;14.03;100.00;101351.00;5314475;28;20031;-67
2023/08/05 04:55:09;;;;;;;17.00;11.32;;;;;;;14.11;100.00;101354.75;5317798;28;20034;-68
2023/08/05 04:57:40;;;;;;;14.60;10.65;;;;;;;14.04;100.00;101350.88;5311013;28;20030;-67
2023/08/05 05:00:12;;;;;;;16.73;10.77;;;;;;;13.99;100.00;101352.22;5331361;27;20493;-68
2023/08/05 05:02:43;;;;;;;15.82;10.75;;;;;;;14.07;100.00;101355.13;5319082;27;20024;-68
2023/08/05 05:05:14;;;;;;;17.38;11.20;;;;;;;14.15;100.00;101349.94;5318384;28;20127;-68
2023/08/05 05:07:46;;;;;;;16.88;11.65;;;;;;;14.14;100.00;101360.84;5319271;28;20028;-67
2023/08/05 05:10:17;;;;;;;15.57;11.30;;;;;;;14.08;100.00;101354.16;5320567;28;20046;-68
2023/08/05 05:12:49;;;;;;;15.15;10.95;;;;;;;14.08;100.00;101351.47;5318283;28;20111;-67
2023/08/05 05:15:21;;;;;;;16.73;11.10;;;;;;;14.13;100.00;101346.53;5319157;28;20370;-68
2023/08/05 05:17:53;;;;;;;16.05;11.57;;;;;;;14.09;100.00;101345.09;5319889;28;20410;-68
2023/08/05 05:20:24;;;;;;;15.32;11.23;;;;;;;14.22;100.00;101345.78;5318360;28;20354;-68
2023/08/05 05:22:55;;;;;;;16.85;11.05;;;;;;;14.03;100.00;101342.94;5309187;28;20027;-68
2023/08/05 05:25:26;;;;;;;16.15;11.07;;;;;;;14.10;100.00;101339.63;5318581;28;20031;-67
2023/08/05 05:27:58;;;;;;;17.10;10.70;;;;;;;14.18;100.00;101347.03;5318006;27;20039;-67
2023/08/05 05:30:29;;;;;;;14.70;11.15;;;;;;;14.19;100.00;101346.06;5319651;28;20489;-67
2023/08/05 05:33:01;;;;;;;15.20;10.43;;;;;;;14.18;100.00;101333.59;5317096;28;20362;-68
2023/08/05 05:35:32;;;;;;;17.95;12.05;;;;;;;14.19;100.00;101335.31;5315330;28;20420;-68
2023/08/05 05:38:03;;;;;;;16.92;11.00;;;;;;;14.38;100.00;101345.38;5311651;28;20023;-67
2023/08/05 05:40:40;;;;;;;16.38;11.43;;;;;;;14.38;100.00;101337.31;5313771;28;20380;-68
2023/08/05 05:43:12;;;;;;;14.63;11.52;;;;;;;14.47;100.00;101333.81;5314982;28;20147;-68
2023/08/05 05:45:43;;;;;;;18.55;11.90;;;;;;;14.66;100.00;101333.13;5315417;28;20024;-68
2023/08/05 05:48:14;;;;;;;16.48;11.27;;;;;;;14.59;100.00;101321.19;5318075;28;20385;-68
2023/08/05 05:50:46;;;;;;;17.33;11.45;;;;;;;14.56;100.00;101317.91;5312857;28;20035;-67
2023/08/05 05:53:17;;;;;;;19.45;11.70;;;;;;;14.63;100.00;101325.34;5309362;28;20499;-68
2023/08/05 05:55:54;;;;;;;17.13;12.43;;;;;;;14.82;100.00;101337.19;5311121;28;20146;-68
2023/08/05 05:58:27;;;;;;;16.33;11.15;;;;;;;14.81;100.00;101328.28;5316730;28;20570;-68
2023/08/05 06:01:00;;;;;;;17.23;11.63;;;;;;;14.88;100.00;101333.94;5298427;28;20043;-68
2023/08/05 06:03:34;;;;;;;16.83;10.80;;;;;;;14.96;100.00;101320.72;5319083;28;20035;-68
2023/08/05 06:06:06;;;;;;;17.10;11.48;;;;;;;14.94;100.00;101317.31;5314282;28;20247;-68
2023/08/05 06:08:37;;;;;;;14.60;10.40;;;;;;;15.02;100.00;101316.63;5316525;28;20039;-68
2023/08/05 06:11:10;;;;;;;16.40;10.88;;;;;;;15.09;100.00;101315.09;5318541;27;20027;-69
2023/08/05 06:13:41;;;;;;;13.82;10.55;;;;;;;15.19;100.00;101313.31;5316425;28;20020;-67
2023/08/05 06:16:13;;;;;;;12.32;9.82;;;;;;;15.38;100.00;101314.34;5318415;28;20695;-68
2023/08/05 06:18:44;;;;;;;14.35;10.55;;;;;;;15.45;100.00;101310.13;5313544;28;20397;-68
2023/08/05 06:21:15;;;;;;;12.93;9.77;;;;;;;15.45;100.00;101315.50;5319409;28;20027;-68
2023/08/05 06:23:47;;;;;;;12.60;9.85;;;;;;;15.60;100.00;101314.13;5315801;28;20035;-68
2023/08/05 06:26:18;;;;;;;13.57;9.82;;;;;;;15.72;100.00;101306.78;5313639;28;20031;-68
2023/08/05 06:28:50;;;;;;;13.80;9.93;;;;;;;15.71;100.00;101304.25;5316162;28;20410;-68
2023/08/05 06:31:21;;;;;;;16.52;9.45;;;;;;;15.81;100.00;101305.13;5316467;28;20038;-68
2023/08/05 06:33:53;;;;;;;12.23;8.82;;;;;;;15.83;100.00;101295.91;5314155;28;20015;-67
2023/08/05 06:36:24;;;;;;;11.25;8.00;;;;;;;15.94;100.00;101299.47;5315229;28;20115;-68
2023/08/05 06:38:56;;;;;;;11.88;8.02;;;;;;;15.93;100.00;101303.16;5324004;27;20509;-68
2023/08/05 06:41:27;;;;;;;12.43;8.25;;;;;;;16.02;100.00;101300.44;5314268;28;20042;-68
2023/08/05 06:43:58;;;;;;;11.27;8.10;;;;;;;16.07;100.00;101291.97;5319299;28;20028;-68
2023/08/05 06:46:30;;;;;;;12.02;8.27;;;;;;;16.17;100.00;101283.88;5301541;28;20035;-68
2023/08/05 06:49:01;;;;;;;11.70;8.45;;;;;;;16.15;100.00;101294.78;5316476;28;20115;-68
2023/08/05 06:51:32;;;;;;;11.43;7.32;;;;;;;16.27;100.00;101290.09;5314584;27;20027;-68
2023/08/05 06:54:04;;;;;;;11.90;8.00;;;;;;;16.25;100.00;101292.94;5312843;27;20027;-69
2023/08/05 06:56:35;;;;;;;11.93;8.48;;;;;;;16.34;100.00;101291.22;5313621;28;20031;-68
2023/08/05 06:59:07;;;;;;;12.23;9.07;;;;;;;16.38;100.00;101281.03;5309307;28;20024;-68
2023/08/05 07:01:40;;;;;;;12.23;8.93;;;;;;;16.51;100.00;101280.69;5316805;28;20110;-68
2023/08/05 07:04:12;;;;;;;11.40;8.55;;;;;;;16.46;100.00;101270.38;5299049;28;20032;-68
2023/08/05 07:06:44;;;;;;;10.25;8.45;;;;;;;16.56;100.00;101275.72;5307553;28;20164;-68
2023/08/05 07:09:15;;;;;;;10.77;7.88;;;;;;;16.68;100.00;101266.47;5312297;28;20055;-68
2023/08/05 07:11:46;;;;;;;11.73;7.68;;;;;;;16.69;100.00;101264.63;5296693;28;20481;-68
2023/08/05 07:14:18;;;;;;;11.73;7.45;;;;;;;16.80;100.00;101272.53;5312336;28;20111;-69
2023/08/05 07:16:49;;;;;;;9.90;7.15;;;;;;;16.94;100.00;101272.06;5317614;28;20019;-68
2023/08/05 07:19:20;;;;;;;8.45;6.82;;;;;;;16.97;100.00;101274.50;5317191;28;20438;-68
2023/08/05 07:21:52;;;;;;;9.05;6.38;;;;;;;17.08;100.00;101269.88;5315055;28;20020;-68
2023/08/05 07:24:23;;;;;;;8.45;6.10;;;;;;;17.24;100.00;101267.41;5313615;28;20039;-68
2023/08/05 07:26:54;;;;;;;9.80;5.93;;;;;;;17.31;100.00;101252.28;5310157;28;20611;-68
2023/08/05 07:29:26;;;;;;;11.30;6.25;;;;;;;17.64;100.00;101255.31;5310244;28;20024;-68
2023/08/05 07:31:57;;;;;;;10.00;6.15;;;;;;;17.72;100.00;101257.25;5311813;28;20046;-68
2023/08/05 07:34:31;;;;;;;8.45;6.03;;;;;;;17.80;100.00;101252.78;5307521;28;20020;-68
2023/08/05 07:37:03;;;;;;;8.50;5.40;;;;;;;17.78;100.00;101246.72;5314595;28;20019;-68
2023/08/05 07:39:35;;;;;;;8.40;5.43;;;;;;;17.93;100.00;101251.56;5318186;28;20028;-68
2023/08/05 07:42:07;;;;;;;9.07;5.78;;;;;;;18.01;100.00;101243.56;5319224;28;20026;-68
2023/08/05 07:44:40;;;;;;;9.05;6.15;;;;;;;18.11;100.00;101241.59;5313291;28;20028;-69
2023/08/05 07:47:12;;;;;;;8.98;6.20;;;;;;;18.19;100.00;101241.66;5305910;28;20026;-69
2023/08/05 07:49:44;;;;;;;9.38;6.00;;;;;;;18.21;100.00;101236.94;5304626;28;20032;-69
2023/08/05 07:52:15;;;;;;;10.93;6.05;;;;;;;18.30;100.00;101235.16;5312136;28;20034;-70
2023/08/05 07:54:47;;;;;;;8.70;5.32;;;;;;;18.33;100.00;101226.75;5313265;28;20488;-69
2023/08/05 07:57:18;;;;;;;8.02;5.43;;;;;;;18.37;100.00;101222.72;5315972;28;20119;-68
2023/08/05 07:59:51;;;;;;;8.02;5.68;;;;;;;18.35;100.00;101215.78;5318609;28;20511;-68
2023/08/05 08:02:24;;;;;;;9.98;5.38;;;;;;;18.61;100.00;101207.66;5313556;28;20020;-69
2023/08/05 08:04:58;;;;;;;8.02;5.35;;;;;;;18.67;100.00;101206.16;5305010;28;20024;-68
2023/08/05 08:07:29;;;;;;;9.20;5.23;;;;;;;18.86;100.00;101189.72;5294760;28;20423;-68
2023/08/05 08:10:00;;;;;;;8.35;5.30;;;;;;;18.92;100.00;101188.22;5308550;28;20297;-69
2023/08/05 08:12:31;;;;;;;6.68;4.55;;;;;;;19.00;100.00;101186.41;5314252;28;20032;-68
2023/08/05 08:15:03;;;;;;;7.00;4.32;;;;;;;19.02;100.00;101193.47;5315408;28;20103;-69
2023/08/05 08:17:35;;;;;;;5.32;3.70;;;;;;;19.03;100.00;101184.38;5317939;28;20111;-69
2023/08/05 08:20:06;;;;;;;5.93;3.90;;;;;;;19.07;100.00;101188.44;5292962;28;20032;-69
2023/08/05 08:22:38;;;;;;;7.97;3.58;;;;;;;19.13;100.00;101179.66;5319879;28;20093;-69
2023/08/05 08:25:09;;;;;;;6.47;2.90;;;;;;;19.22;100.00;101185.94;5315771;28;20027;-69
2023/08/05 08:27:41;;;;;;;5.43;3.22;;;;;;;19.19;100.00;101174.44;5313698;28;20023;-70
2023/08/05 08:30:12;;;;;;;5.32;2.75;;;;;;;19.26;100.00;101180.03;5313591;28;20039;-69
2023/08/05 08:32:44;;;;;;;5.88;3.00;;;;;;;19.25;100.00;101169.38;5310148;28;20027;-69
2023/08/05 08:35:15;;;;;;;4.88;3.10;;;;;;;19.29;100.00;101174.28;5312283;28;20022;-68
2023/08/05 08:37:47;;;;;;;4.15;3.25;;;;;;;19.27;100.00;101164.63;5311536;28;20031;-69
2023/08/05 08:40:18;;;;;;;5.07;2.70;;;;;;;19.33;100.00;101153.13;5320202;28;20042;-70
2023/08/05 08:42:51;;;;;;;6.38;2.90;;;;;;;19.34;100.00;101144.00;5312402;27;20713;-69
2023/08/05 08:45:28;;;;;;;5.18;2.88;;;;;;;19.38;100.00;101145.38;5316542;28;20491;-69
2023/08/05 08:48:00;;;;;;;3.75;2.35;;;;;;;19.43;100.00;101147.59;5313110;27;20035;-69
2023/08/05 08:50:34;;;;;;;4.78;2.63;;;;;;;19.51;100.00;101140.31;5311448;28;20031;-69
2023/08/05 08:53:08;;;;;;;5.65;3.22;;;;;;;19.54;100.00;101133.69;5314897;28;20147;-69
2023/08/05 08:55:41;;;;;;;4.20;2.55;;;;;;;19.68;100.00;101130.31;5309369;28;20035;-69
2023/08/05 08:58:12;;;;;;;5.47;2.60;;;;;;;19.77;100.00;101126.63;5316616;28;20020;-69
2023/08/05 09:00:47;;;;;;;4.90;2.70;;;;;;;19.83;100.00;101124.22;5316808;27;20023;-69
2023/08/05 09:03:23;;;;;;;6.43;2.60;;;;;;;19.89;100.00;101126.28;5320508;28;20128;-69
2023/08/05 09:05:56;;;;;;;5.80;2.95;;;;;;;19.97;100.00;101113.56;5315610;28;20060;-69
2023/08/05 09:08:29;;;;;;;4.85;3.10;;;;;;;20.06;100.00;101114.38;5319530;28;20061;-69
2023/08/05 09:11:01;;;;;;;6.57;2.53;;;;;;;20.18;100.00;101112.16;5314835;27;20022;-69
2023/08/05 09:13:32;;;;;;;5.85;2.60;;;;;;;20.21;100.00;101102.81;5318885;28;20031;-69
2023/08/05 09:16:04;;;;;;;6.75;3.17;;;;;;;20.36;100.00;101101.94;5314157;28;20140;-69
2023/08/05 09:18:42;;;;;;;4.85;3.05;;;;;;;20.32;100.00;101091.59;5314703;28;20397;-71
2023/08/05 09:21:21;;;;;;;5.47;2.92;;;;;;;20.21;100.00;101086.56;5316537;28;20528;-69
2023/08/05 09:23:54;;;;;;;5.10;3.15;;;;;;;20.16;100.00;101077.09;5314629;28;20027;-70
2023/08/05 09:26:30;;;;;;;5.60;3.13;;;;;;;20.13;100.00;101082.03;5306635;28;20035;-70
2023/08/05 09:29:04;;;;;;;5.25;2.42;;;;;;;20.11;100.00;101070.50;5309573;28;20265;-69
2023/08/05 09:31:35;;;;;;;5.30;3.20;;;;;;;20.12;100.00;101077.63;5319118;28;20035;-69
2023/08/05 09:34:08;;;;;;;6.22;3.20;;;;;;;20.11;100.00;101071.34;5315337;28;20027;-69
2023/08/05 09:36:40;;;;;;;7.77;3.40;;;;;;;20.17;100.00;101064.41;5314652;28;20026;-69
2023/08/05 09:39:15;;;;;;;4.93;3.00;;;;;;;20.21;100.00;101078.44;5304664;28;20262;-70
2023/08/05 09:41:54;;;;;;;5.72;3.55;;;;;;;20.20;100.00;101065.94;5313729;28;20051;-69
2023/08/05 09:44:27;;;;;;;7.47;3.75;;;;;;;20.16;100.00;101066.25;5317404;28;20077;-69
2023/08/05 09:47:01;;;;;;;5.00;3.15;;;;;;;20.12;100.00;101056.81;5320319;28;20035;-69
2023/08/05 09:49:38;;;;;;;6.63;3.40;;;;;;;20.06;100.00;101060.22;5308708;28;20032;-69
2023/08/05 09:52:12;;;;;;;5.10;3.13;;;;;;;20.13;100.00;101052.22;5313524;28;20031;-69
2023/08/05 09:55:09;;;;;;;5.68;3.03;;;;;;;20.25;100.00;101047.25;5309105;28;20040;-69
2023/08/05 09:57:41;;;;;;;5.47;3.38;;;;;;;20.04;100.00;101045.13;5314764;27;20038;-70
2023/08/05 10:00:14;;;;;;;5.63;3.22;;;;;;;19.94;100.00;101038.09;5312818;28;20032;-69
2023/08/05 10:02:46;;;;;;;5.68;2.95;;;;;;;19.85;100.00;101032.84;5310460;28;20023;-70
2023/08/05 10:05:18;;;;;;;6.88;3.20;;;;;;;19.78;100.00;101038.94;5308912;27;20150;-69
2023/08/05 10:07:53;;;;;;;5.07;2.90;;;;;;;19.78;100.00;101025.41;5314838;28;20400;-70
2023/08/05 10:10:24;;;;;;;5.43;2.65;;;;;;;19.85;100.00;101028.28;5314629;28;20036;-69
2023/08/05 10:13:04;;;;;;;6.43;3.08;;;;;;;19.85;100.00;101028.28;5315594;28;20093;-70
2023/08/05 10:15:40;;;;;;;5.50;3.25;;;;;;;19.82;100.00;101022.38;5313903;27;20028;-70
2023/08/05 10:18:14;;;;;;;7.18;3.17;;;;;;;19.77;100.00;101017.47;5304368;28;20063;-69
2023/08/05 10:20:51;;;;;;;;;;;;;;;20.03;100.00;101028.06;5317979;28;20100;-70
2023/08/05 10:23:25;;;;;;;6.40;4.55;;;;;;;19.43;100.00;101037.47;5317378;28;19916;-69
2023/08/05 10:26:00;;;;;;;;;;;;;;;19.73;100.00;101030.53;5315552;28;20023;-68
2023/08/05 10:28:34;;;;;;;6.15;5.05;;;;;;;19.41;100.00;101031.41;5314371;28;19919;-68
2023/08/05 10:31:21;;;;;;;;;;;;;;;19.64;100.00;101031.53;5318976;28;20069;-68
2023/08/05 10:34:10;;;;;;;7.68;5.75;;;;;;;19.34;100.00;101031.22;5309651;28;19912;-68
2023/08/05 10:36:43;;;;;;;9.82;5.45;;;;;;;19.21;100.00;101025.47;5308461;28;20106;-69
2023/08/05 10:39:40;;;;;;;7.22;5.20;;;;;;;19.35;100.00;101019.38;5316334;28;20027;-68
2023/08/05 10:42:34;;;;;;;6.90;4.90;;;;;;;19.35;100.00;101011.28;5319431;28;20055;-69
2023/08/05 10:45:08;;;;;;;6.43;5.03;;;;;;;19.21;100.00;101014.66;5316546;28;20027;-69
2023/08/05 10:47:46;;;;;;;7.45;5.05;;;;;;;19.27;100.00;101005.88;5309743;28;20075;-68
2023/08/05 10:50:18;;;;;;;7.65;5.07;;;;;;;19.23;100.00;101007.22;5310803;28;20023;-69
2023/08/05 10:52:50;;;;;;;7.50;4.32;;;;;;;19.30;100.00;101010.94;5313616;28;20039;-68
2023/08/05 10:55:27;;;;;;;6.20;4.63;;;;;;;19.38;100.00;101010.91;5312438;28;20024;-69
2023/08/05 10:57:58;;;;;;;6.93;4.43;;;;;;;19.42;100.00;101010.59;5316816;28;20047;-69
2023/08/05 11:00:37;;;;;;;5.90;3.92;;;;;;;19.43;100.00;100998.75;5312752;28;20493;-68
2023/08/05 11:03:25;;;;;;;5.50;3.53;;;;;;;19.46;100.00;100995.69;5315763;28;20031;-69
2023/08/05 11:06:05;;;;;;;6.53;3.83;;;;;;;19.49;100.00;100996.19;5307151;28;20036;-69
2023/08/05 11:08:38;;;;;;;6.28;3.80;;;;;;;19.50;100.00;100987.06;5304410;28;20055;-69
2023/08/05 11:11:13;;;;;;;7.30;3.30;;;;;;;19.50;100.00;100980.78;5312772;28;20042;-69
2023/08/05 11:13:46;;;;;;;5.22;3.47;;;;;;;19.51;100.00;100983.34;5311150;28;20799;-69
2023/08/05 11:16:18;;;;;;;4.97;3.13;;;;;;;19.48;100.00;100993.66;5309588;28;20023;-69
2023/08/05 11:18:57;;;;;;;5.38;3.20;;;;;;;19.46;100.00;100979.44;5311092;28;20024;-69
2023/08/05 11:21:28;;;;;;;5.70;3.47;;;;;;;19.37;100.00;100979.47;5309549;28;20032;-69
2023/08/05 11:24:00;;;;;;;5.85;3.20;;;;;;;19.34;100.00;100966.28;5308305;28;20051;-70
2023/08/05 11:26:31;;;;;;;6.65;3.30;;;;;;;19.28;100.00;100961.56;5309247;28;20020;-69
2023/08/05 11:29:03;;;;;;;6.68;3.38;;;;;;;19.21;100.00;100960.56;5316133;28;20102;-69
2023/08/05 11:31:34;;;;;;;6.78;3.60;;;;;;;19.23;100.00;100953.09;5308587;28;20023;-69
2023/08/05 11:34:05;;;;;;;5.57;3.33;;;;;;;19.19;100.00;100952.63;5303055;28;20036;-69
2023/08/05 11:36:37;;;;;;;6.70;3.80;;;;;;;19.11;100.00;100954.47;5315963;28;20030;-69